Time;durP1;ratioP1;P1;durP2;ratioP2;P2;SDS_P1;SDS_P2;PMS_P1;PMS_P2;Temp;Humidity;BMP_temperature;BMP_pressure;BME280_temperature;BME280_humidity;BME280_pressure;Samples;Min_cycle;Max_cycle;Signal;HPM_P1;HPM_P2
2021/08/05 00:02:16;;;;;;;10.10;7.92;;;;;;;16.69;86.79;97618.63;1699037;83;20962;-73
2021/08/05 00:04:41;;;;;;;13.20;8.25;;;;;;;16.69;86.67;97617.83;1699316;82;20898;-78
2021/08/05 00:07:08;;;;;;;10.43;7.00;;;;;;;16.68;86.85;97620.30;1699147;83;21378;-73
2021/08/05 00:09:34;;;;;;;12.25;7.92;;;;;;;16.65;86.90;97617.07;1699221;84;20914;-79
2021/08/05 00:12:00;;;;;;;16.97;8.80;;;;;;;16.64;87.22;97612.73;1699032;84;21575;-79
2021/08/05 00:14:26;;;;;;;10.10;7.67;;;;;;;16.63;86.99;97608.40;1699347;84;20878;-74
2021/08/05 00:16:51;;;;;;;13.75;8.23;;;;;;;16.63;87.37;97608.40;1699193;84;20977;-74
2021/08/05 00:19:17;;;;;;;24.35;8.58;;;;;;;16.68;88.65;97612.09;1699041;83;21164;-74
2021/08/05 00:21:43;;;;;;;12.03;7.40;;;;;;;16.71;89.17;97607.36;1699078;84;20914;-73
2021/08/05 00:24:09;;;;;;;12.40;8.68;;;;;;;16.71;89.63;97608.72;1699149;84;20918;-80
2021/08/05 00:26:35;;;;;;;12.50;8.35;;;;;;;16.73;89.60;97596.88;1699076;84;20894;-79
2021/08/05 00:29:01;;;;;;;12.80;7.70;;;;;;;16.78;88.92;97596.13;1699174;83;20946;-73
2021/08/05 00:31:27;;;;;;;8.90;6.62;;;;;;;16.82;89.21;97593.53;1699127;84;22009;-74
2021/08/05 00:33:53;;;;;;;16.25;8.03;;;;;;;16.83;88.20;97601.40;1699030;84;20874;-79
2021/08/05 00:36:19;;;;;;;15.65;7.78;;;;;;;16.77;88.54;97598.64;1699256;82;20913;-79
2021/08/05 00:38:45;;;;;;;13.08;7.85;;;;;;;16.73;89.00;97596.31;1699085;84;20962;-73
2021/08/05 00:41:12;;;;;;;15.98;7.05;;;;;;;16.74;89.98;97588.91;1699043;82;21497;-74
2021/08/05 00:43:39;;;;;;;13.35;8.55;;;;;;;16.72;89.72;97579.66;1699043;84;21247;-73
2021/08/05 00:46:05;;;;;;;11.22;6.95;;;;;;;16.69;89.33;97572.13;1699227;83;21383;-74
2021/08/05 00:48:31;;;;;;;11.48;8.10;;;;;;;16.67;89.75;97563.42;1699055;83;20994;-74
2021/08/05 00:50:58;;;;;;;12.93;7.90;;;;;;;16.69;89.75;97569.39;1699183;84;20839;-74
2021/08/05 00:53:24;;;;;;;8.93;7.25;;;;;;;16.66;88.80;97571.37;1699097;84;21340;-79
2021/08/05 00:55:50;;;;;;;12.78;8.50;;;;;;;16.63;88.56;97569.30;1699137;84;21056;-74
2021/08/05 00:58:16;;;;;;;17.82;8.85;;;;;;;16.63;88.55;97569.30;1699060;84;20874;-73
2021/08/05 01:00:46;;;;;;;14.80;8.93;;;;;;;16.66;88.52;97567.27;1699278;84;21000;-74
2021/08/05 01:03:27;;;;;;;10.03;7.53;;;;;;;16.66;88.24;97563.16;1698971;84;21403;-79
2021/08/05 01:06:05;;;;;;;12.03;7.17;;;;;;;16.62;91.70;97555.39;1699216;83;20946;-78
2021/08/05 01:08:31;;;;;;;11.57;7.00;;;;;;;16.64;90.71;97548.45;1697858;84;21474;-74
2021/08/05 01:11:23;;;;;;;12.73;6.67;;;;;;;16.64;90.64;97545.72;1699196;83;20880;-79
2021/08/05 01:13:54;;;;;;;12.07;7.50;;;;;;;16.60;89.71;97538.52;1698401;84;21435;-74
2021/08/05 01:16:24;;;;;;;14.75;8.95;;;;;;;16.56;90.15;97538.36;1699126;84;20954;-79
2021/08/05 01:18:50;;;;;;;12.25;7.37;;;;;;;16.57;90.49;97534.49;1699019;84;21027;-79
2021/08/05 01:21:30;;;;;;;12.18;7.37;;;;;;;16.61;90.46;97531.91;1699147;84;20921;-79
2021/08/05 01:24:01;;;;;;;11.60;8.38;;;;;;;16.64;91.23;97529.88;1681481;84;21014;-74
2021/08/05 01:26:52;;;;;;;9.95;7.37;;;;;;;16.64;91.38;97528.51;1699198;84;21014;-71
2021/08/05 01:29:18;;;;;;;13.40;7.22;;;;;;;16.62;91.85;97522.00;1698943;84;21388;-73
2021/08/05 01:31:44;;;;;;;12.20;7.83;;;;;;;16.62;92.33;97523.94;1699104;84;20859;-80
2021/08/05 01:34:15;;;;;;;10.10;7.08;;;;;;;16.58;92.21;97516.17;1698874;83;21418;-73
2021/08/05 01:36:43;;;;;;;10.00;7.47;;;;;;;16.54;92.07;97520.12;1699143;84;20958;-73
2021/08/05 01:39:09;;;;;;;9.30;6.78;;;;;;;16.52;92.64;97516.92;1698950;83;21005;-74
2021/08/05 01:41:36;;;;;;;10.45;7.33;;;;;;;16.55;91.80;97509.98;1699144;84;20934;-79
2021/08/05 01:44:06;;;;;;;11.68;7.87;;;;;;;16.52;91.00;97509.28;1699001;84;20985;-73
2021/08/05 01:46:32;;;;;;;9.88;7.20;;;;;;;16.47;90.58;97514.36;1698005;84;21318;-73
2021/08/05 01:48:57;;;;;;;11.68;8.15;;;;;;;16.42;90.45;97510.47;1699003;84;20871;-79
2021/08/05 01:51:23;;;;;;;16.52;7.83;;;;;;;16.38;90.70;97509.51;1698984;84;20882;-79
2021/08/05 01:53:49;;;;;;;16.10;7.75;;;;;;;16.36;91.70;97506.31;1698901;84;20863;-73
2021/08/05 01:56:21;;;;;;;11.53;7.70;;;;;;;16.38;92.17;97509.51;1699605;83;20895;-74
2021/08/05 01:58:47;;;;;;;11.57;6.75;;;;;;;16.42;91.29;97512.41;1708419;83;21772;-73
2021/08/05 02:01:16;;;;;;;9.35;6.67;;;;;;;16.47;91.00;97510.27;1706907;83;20903;-79
2021/08/05 02:03:45;;;;;;;16.52;8.60;;;;;;;16.56;91.10;97512.38;1706886;82;20954;-73
2021/08/05 02:06:14;;;;;;;10.72;7.10;;;;;;;16.60;92.53;97498.86;1706957;82;21433;-73
2021/08/05 02:09:01;;;;;;;10.93;7.10;;;;;;;16.65;93.23;97501.39;1706932;84;21379;-74
2021/08/05 02:11:29;;;;;;;10.82;7.60;;;;;;;16.68;91.82;97508.15;1706920;83;21344;-73
2021/08/05 02:13:55;;;;;;;10.13;6.78;;;;;;;16.63;91.44;97507.19;1706884;84;21112;-73
2021/08/05 02:16:24;;;;;;;9.90;7.33;;;;;;;16.69;91.64;97511.15;1707012;83;20938;-79
2021/08/05 02:18:51;;;;;;;8.68;6.55;;;;;;;16.71;92.10;97508.87;1706912;83;20962;-73
2021/08/05 02:21:19;;;;;;;9.68;6.95;;;;;;;16.70;92.57;97511.38;1707053;82;21339;-73
2021/08/05 02:23:45;;;;;;;8.38;6.62;;;;;;;16.69;92.41;97506.48;1706775;83;21269;-79
2021/08/05 02:26:11;;;;;;;8.63;6.17;;;;;;;16.70;91.57;97499.07;1706984;83;20866;-73
2021/08/05 02:28:37;;;;;;;8.85;6.85;;;;;;;16.68;91.35;97502.11;1706667;84;21022;-74
2021/08/05 02:31:04;;;;;;;13.58;8.13;;;;;;;16.60;91.46;97505.70;1707079;84;20968;-73
2021/08/05 02:33:31;;;;;;;11.70;7.15;;;;;;;16.52;91.52;97501.87;1706775;82;20962;-73
2021/08/05 02:35:57;;;;;;;14.20;7.28;;;;;;;16.53;91.78;97501.31;1706684;84;21128;-79
2021/08/05 02:38:24;;;;;;;10.63;7.25;;;;;;;16.49;91.47;97497.08;1706868;82;20890;-79
2021/08/05 02:40:50;;;;;;;9.55;7.42;;;;;;;16.49;91.73;97503.09;1686850;84;20970;-79
2021/08/05 02:43:16;;;;;;;12.23;7.72;;;;;;;16.47;91.89;97506.73;1706806;83;20973;-79
2021/08/05 02:45:43;;;;;;;11.88;6.50;;;;;;;16.43;91.96;97509.33;1686770;84;20970;-73
2021/08/05 02:48:09;;;;;;;11.03;6.85;;;;;;;16.41;91.83;97507.50;1686483;84;21047;-79
2021/08/05 02:50:35;;;;;;;11.93;6.28;;;;;;;16.40;92.86;97507.80;1686994;84;21480;-73
2021/08/05 02:53:02;;;;;;;11.55;6.78;;;;;;;16.47;93.05;97503.99;1706742;84;20965;-73
2021/08/05 02:55:28;;;;;;;9.75;6.53;;;;;;;16.53;92.79;97499.95;1706905;83;21367;-73
2021/08/05 02:57:54;;;;;;;8.65;6.60;;;;;;;16.53;92.60;97497.21;1704946;83;20914;-80
2021/08/05 03:00:20;;;;;;;8.88;6.25;;;;;;;16.53;93.01;97489.80;1699204;84;21163;-73
2021/08/05 03:02:46;;;;;;;9.45;6.12;;;;;;;16.58;92.35;97490.20;1698975;83;20904;-73
2021/08/05 03:05:13;;;;;;;7.60;5.87;;;;;;;16.55;92.62;97480.70;1699173;83;21471;-80
2021/08/05 03:07:39;;;;;;;10.05;6.37;;;;;;;16.53;92.44;97476.13;1698953;83;21042;-80
2021/08/05 03:10:07;;;;;;;10.18;5.95;;;;;;;16.49;92.04;97475.20;1699315;84;20851;-80
2021/08/05 03:12:33;;;;;;;9.73;5.93;;;;;;;16.49;91.71;97470.27;1699229;83;21453;-73
2021/08/05 03:14:59;;;;;;;9.40;7.00;;;;;;;16.46;91.67;97457.27;1699149;83;20934;-73
2021/08/05 03:17:25;;;;;;;10.38;7.25;;;;;;;16.44;91.71;97460.91;1699174;83;20842;-73
2021/08/05 03:19:51;;;;;;;10.35;6.90;;;;;;;16.42;91.84;97463.98;1699333;83;20855;-79
2021/08/05 03:22:17;;;;;;;10.40;7.22;;;;;;;16.38;91.88;97471.80;1699133;84;20894;-74
2021/08/05 03:24:43;;;;;;;10.05;6.75;;;;;;;16.37;91.79;97469.63;1699236;82;21308;-74
2021/08/05 03:27:10;;;;;;;8.33;6.70;;;;;;;16.38;92.87;97461.66;1699147;83;21615;-74
2021/08/05 03:29:36;;;;;;;10.32;6.67;;;;;;;16.36;92.38;97453.80;1699191;83;20950;-80
2021/08/05 03:32:02;;;;;;;9.95;7.05;;;;;;;16.38;93.04;97447.19;1699167;83;21596;-79
2021/08/05 03:34:28;;;;;;;11.90;6.87;;;;;;;16.40;92.53;97447.09;1709161;83;20950;-79
2021/08/05 03:36:54;;;;;;;10.80;6.25;;;;;;;16.44;92.46;97446.67;1704499;82;21084;-80
2021/08/05 03:39:20;;;;;;;10.25;6.60;;;;;;;16.41;91.76;97447.88;1701734;83;20870;-73
2021/08/05 03:41:47;;;;;;;10.28;7.40;;;;;;;16.36;92.50;97446.16;1699143;84;20890;-79
2021/08/05 03:44:13;;;;;;;12.33;7.17;;;;;;;16.34;92.45;97445.70;1698866;82;20962;-79
2021/08/05 03:46:38;;;;;;;8.70;6.72;;;;;;;16.35;92.68;97452.20;1699214;83;20878;-80
2021/08/05 03:49:04;;;;;;;8.88;6.67;;;;;;;16.38;92.70;97448.56;1699015;84;21980;-80
2021/08/05 03:51:30;;;;;;;10.43;7.25;;;;;;;16.44;92.07;97452.14;1699305;83;20875;-73
2021/08/05 03:53:56;;;;;;;10.40;5.75;;;;;;;16.46;92.07;97451.23;1699024;84;21536;-73
2021/08/05 03:56:22;;;;;;;9.65;6.25;;;;;;;16.45;91.73;97444.73;1699214;83;20851;-73
2021/08/05 03:58:48;;;;;;;9.05;6.85;;;;;;;16.44;91.62;97443.14;1713596;82;21193;-80
2021/08/05 04:01:14;;;;;;;8.53;6.62;;;;;;;16.40;92.29;97444.92;1707055;82;21198;-79
2021/08/05 04:03:40;;;;;;;9.03;6.25;;;;;;;16.40;93.36;97444.35;1706775;83;20874;-79
2021/08/05 04:06:07;;;;;;;9.35;7.05;;;;;;;16.43;92.54;97449.17;1706944;82;20981;-80
2021/08/05 04:08:33;;;;;;;11.70;7.65;;;;;;;16.51;92.37;97448.33;1686524;84;20930;-74
2021/08/05 04:10:59;;;;;;;9.18;7.30;;;;;;;16.57;92.09;97442.87;1710612;83;21619;-74
2021/08/05 04:13:25;;;;;;;10.23;7.25;;;;;;;16.64;92.13;97432.20;1706806;84;21847;-80
2021/08/05 04:15:51;;;;;;;28.50;25.90;;;;;;;16.63;92.03;97433.34;1706936;84;20854;-74
2021/08/05 04:18:17;;;;;;;22.27;20.30;;;;;;;16.56;92.69;97434.44;1706977;83;20878;-80
2021/08/05 04:20:43;;;;;;;12.05;10.38;;;;;;;16.59;92.09;97428.89;1707214;83;20890;-81
2021/08/05 04:23:09;;;;;;;9.48;7.30;;;;;;;16.57;92.13;97427.83;1706880;82;20973;-80
2021/08/05 04:25:35;;;;;;;9.25;7.33;;;;;;;16.52;92.77;97422.58;1707129;84;21313;-80
2021/08/05 04:28:01;;;;;;;11.80;7.70;;;;;;;16.54;93.18;97403.09;1706788;84;20959;-74
2021/08/05 04:30:27;;;;;;;9.60;6.55;;;;;;;16.56;93.11;97398.88;1707061;84;20878;-74
2021/08/05 04:32:52;;;;;;;10.13;6.83;;;;;;;16.62;92.58;97404.96;1706965;84;20993;-74
2021/08/05 04:35:18;;;;;;;8.48;6.75;;;;;;;16.70;92.26;97406.06;1707056;82;20864;-75
2021/08/05 04:37:56;;;;;;;13.32;7.00;;;;;;;16.73;92.10;97402.08;1706888;82;21279;-80
2021/08/05 04:40:23;;;;;;;18.07;7.40;;;;;;;16.82;92.05;97400.64;1707315;83;20902;-79
2021/08/05 04:42:49;;;;;;;13.80;7.95;;;;;;;16.89;91.93;97389.96;1706899;82;21014;-79
2021/08/05 04:45:15;;;;;;;10.35;7.28;;;;;;;16.91;92.62;97390.42;1707081;84;21064;-74
2021/08/05 04:47:57;;;;;;;12.30;7.67;;;;;;;16.88;91.70;97387.80;1706993;82;21628;-74
2021/08/05 04:50:27;;;;;;;9.58;7.65;;;;;;;16.80;92.51;97387.87;1707108;84;21650;-80
2021/08/05 04:52:54;;;;;;;13.13;9.00;;;;;;;16.80;91.84;97384.56;1706774;84;20919;-80
2021/08/05 04:55:20;;;;;;;9.50;6.62;;;;;;;16.72;91.81;97377.23;1707070;82;21026;-74
2021/08/05 04:57:53;;;;;;;12.55;7.25;;;;;;;16.70;92.19;97377.34;1706837;83;20855;-74
2021/08/05 05:00:28;;;;;;;11.00;7.65;;;;;;;16.70;91.81;97365.83;1707213;84;21033;-73
2021/08/05 05:02:54;;;;;;;10.23;7.87;;;;;;;16.70;92.03;97359.56;1701913;83;21081;-79
2021/08/05 05:05:21;;;;;;;9.65;7.62;;;;;;;16.73;91.79;97368.45;1699302;84;21058;-74
2021/08/05 05:07:48;;;;;;;9.85;7.55;;;;;;;16.80;91.73;97376.36;1698977;84;20990;-73
2021/08/05 05:10:13;;;;;;;10.53;8.30;;;;;;;16.88;91.69;97385.63;1699345;84;21037;-79
2021/08/05 05:12:40;;;;;;;9.63;7.67;;;;;;;16.95;91.51;97389.20;1699258;83;22034;-79
2021/08/05 05:15:08;;;;;;;14.03;11.05;;;;;;;16.99;91.53;97382.70;1699279;83;21190;-79
2021/08/05 05:17:34;;;;;;;14.40;8.53;;;;;;;16.91;92.37;97381.64;1699318;84;20974;-79
2021/08/05 05:20:00;;;;;;;9.90;8.48;;;;;;;16.95;92.00;97379.05;1699284;84;21449;-73
2021/08/05 05:22:26;;;;;;;10.60;7.67;;;;;;;16.97;92.23;97360.92;1679196;84;21023;-73
2021/08/05 05:24:52;;;;;;;9.30;8.03;;;;;;;17.02;91.84;97357.41;1699355;83;21430;-79
2021/08/05 05:27:18;;;;;;;9.20;7.90;;;;;;;17.02;92.12;97349.77;1699147;84;21144;-79
2021/08/05 05:29:44;;;;;;;9.53;7.60;;;;;;;17.05;92.46;97340.87;1699125;84;20890;-79
2021/08/05 05:32:10;;;;;;;10.08;7.22;;;;;;;17.08;91.92;97342.36;1699082;84;20863;-79
2021/08/05 05:34:36;;;;;;;9.85;6.87;;;;;;;17.13;91.47;97335.88;1699270;84;20894;-74
2021/08/05 05:37:03;;;;;;;7.65;6.65;;;;;;;17.07;91.24;97337.22;1699197;84;20895;-74
2021/08/05 05:39:28;;;;;;;8.03;6.62;;;;;;;17.08;91.25;97332.78;1699244;83;21970;-73
2021/08/05 05:41:54;;;;;;;6.70;5.75;;;;;;;17.15;91.50;97330.29;1699072;84;21498;-79
2021/08/05 05:44:20;;;;;;;7.75;6.12;;;;;;;17.17;91.36;97335.42;1699304;83;20875;-74
2021/08/05 05:46:46;;;;;;;9.35;7.12;;;;;;;17.11;91.33;97334.06;1699133;84;20941;-80
2021/08/05 05:49:12;;;;;;;11.12;7.15;;;;;;;17.16;91.36;97338.73;1699071;84;20922;-79
2021/08/05 05:51:38;;;;;;;8.18;6.62;;;;;;;17.23;91.24;97320.38;1699230;83;21295;-79
2021/08/05 05:54:05;;;;;;;8.35;7.40;;;;;;;17.32;91.30;97327.13;1699025;84;20851;-73
2021/08/05 05:56:32;;;;;;;9.88;6.67;;;;;;;17.40;91.08;97324.28;1679007;84;21111;-79
2021/08/05 05:58:58;;;;;;;13.20;7.25;;;;;;;17.46;90.65;97318.83;1699008;83;21072;-79
2021/08/05 06:01:24;;;;;;;8.33;6.70;;;;;;;17.40;90.41;97319.38;1699078;84;20922;-73
2021/08/05 06:03:50;;;;;;;7.97;6.55;;;;;;;17.39;91.38;97314.48;1699133;83;21184;-74
2021/08/05 06:06:15;;;;;;;8.30;6.53;;;;;;;17.44;90.87;97307.98;1699536;84;20906;-73
2021/08/05 06:08:41;;;;;;;7.10;5.45;;;;;;;17.48;90.69;97308.32;1699078;84;20883;-74
2021/08/05 06:11:07;;;;;;;8.35;6.40;;;;;;;17.54;90.53;97300.69;1699538;83;20927;-73
2021/08/05 06:13:33;;;;;;;8.58;6.00;;;;;;;17.60;90.40;97305.34;1699135;84;20815;-73
2021/08/05 06:15:59;;;;;;;8.70;6.58;;;;;;;17.66;90.34;97302.62;1699675;83;22006;-73
2021/08/05 06:18:25;;;;;;;7.60;6.22;;;;;;;17.74;90.28;97308.00;1699110;84;20902;-79
2021/08/05 06:20:51;;;;;;;8.33;6.12;;;;;;;17.80;90.20;97310.53;1699299;83;20957;-74
2021/08/05 06:23:17;;;;;;;8.45;6.05;;;;;;;17.81;90.99;97305.27;1699272;83;20910;-79
2021/08/05 06:25:43;;;;;;;10.32;7.00;;;;;;;17.81;90.45;97312.92;1699331;83;20930;-73
2021/08/05 06:28:09;;;;;;;6.72;6.00;;;;;;;17.86;90.29;97313.24;1699243;83;21242;-80
2021/08/05 06:30:35;;;;;;;7.92;5.72;;;;;;;17.94;90.19;97314.48;1699168;84;21485;-80
2021/08/05 06:33:01;;;;;;;7.20;6.15;;;;;;;18.03;90.01;97323.41;1699004;84;20989;-80
2021/08/05 06:35:27;;;;;;;6.30;5.70;;;;;;;18.10;89.89;97317.90;1699212;83;20823;-79
2021/08/05 06:37:53;;;;;;;9.20;6.60;;;;;;;18.13;89.76;97314.48;1696006;83;20839;-74
2021/08/05 06:40:19;;;;;;;7.75;5.37;;;;;;;18.19;89.65;97325.42;1697962;84;22043;-79
2021/08/05 06:42:45;;;;;;;7.17;6.10;;;;;;;18.15;89.46;97314.36;1699056;83;20862;-74
2021/08/05 06:45:12;;;;;;;11.20;6.65;;;;;;;18.10;89.54;97312.42;1699386;84;21000;-80
2021/08/05 06:47:40;;;;;;;8.28;6.50;;;;;;;17.85;91.36;97302.85;1698916;84;20947;-74
2021/08/05 06:50:08;;;;;;;8.05;6.53;;;;;;;17.80;90.80;97295.45;1699439;83;21038;-74
2021/08/05 06:52:34;;;;;;;20.97;13.88;;;;;;;17.69;91.63;97300.58;1699398;83;21142;-74
2021/08/05 06:55:00;;;;;;;16.17;9.55;;;;;;;17.58;91.89;97296.11;1699342;84;20934;-80
2021/08/05 06:57:26;;;;;;;8.03;5.60;;;;;;;17.64;91.03;97306.27;1699670;83;20879;-74
2021/08/05 06:59:52;;;;;;;7.92;6.28;;;;;;;17.71;90.81;97305.17;1711741;83;20850;-80
2021/08/05 07:02:18;;;;;;;5.75;5.17;;;;;;;17.77;90.56;97296.92;1709813;83;20969;-80
2021/08/05 07:04:44;;;;;;;8.53;5.47;;;;;;;17.83;90.48;97294.76;1708770;83;21015;-75
2021/08/05 07:07:10;;;;;;;8.28;6.22;;;;;;;17.91;90.44;97296.00;1706956;83;20874;-79
2021/08/05 07:09:35;;;;;;;8.10;5.97;;;;;;;17.98;90.24;97299.54;1706920;83;21028;-79
2021/08/05 07:12:02;;;;;;;7.30;5.62;;;;;;;18.02;90.03;97297.69;1706958;82;20862;-79
2021/08/05 07:14:28;;;;;;;6.22;5.42;;;;;;;18.08;89.84;97299.06;1706853;83;20918;-80
2021/08/05 07:16:54;;;;;;;8.35;5.37;;;;;;;18.15;89.70;97301.22;1706918;84;20846;-79
2021/08/05 07:19:20;;;;;;;9.33;5.62;;;;;;;18.20;89.47;97301.80;1706498;84;20885;-76
2021/08/05 07:21:45;;;;;;;5.95;4.83;;;;;;;18.26;89.12;97300.95;1686853;84;20917;-76
2021/08/05 07:24:14;;;;;;;6.65;5.10;;;;;;;18.25;89.00;97295.25;1706678;84;20910;-75
2021/08/05 07:26:41;;;;;;;4.90;4.40;;;;;;;18.32;89.15;97290.78;1707088;83;21501;-78
2021/08/05 07:29:07;;;;;;;8.30;6.30;;;;;;;18.47;89.17;97286.51;1706638;83;21277;-74
2021/08/05 07:31:33;;;;;;;7.28;6.17;;;;;;;18.51;88.87;97281.11;1706913;83;21098;-74
2021/08/05 07:33:59;;;;;;;7.78;6.25;;;;;;;18.54;88.84;97285.34;1706812;82;21004;-78
2021/08/05 07:36:26;;;;;;;7.00;6.10;;;;;;;18.55;88.86;97288.31;1707010;83;20927;-78
2021/08/05 07:38:52;;;;;;;7.80;5.97;;;;;;;18.50;88.84;97289.91;1706615;82;21025;-75
2021/08/05 07:41:18;;;;;;;9.83;7.30;;;;;;;18.42;89.17;97285.95;1706993;84;21155;-79
2021/08/05 07:43:44;;;;;;;13.05;10.58;;;;;;;18.43;89.04;97284.22;1706696;83;20967;-75
2021/08/05 07:46:10;;;;;;;14.47;7.30;;;;;;;18.40;88.90;97286.30;1706818;83;21423;-79
2021/08/05 07:48:37;;;;;;;10.05;8.03;;;;;;;18.38;88.94;97289.17;1706569;84;20974;-75
2021/08/05 07:51:03;;;;;;;9.75;7.50;;;;;;;18.24;89.18;97289.55;1707292;82;21018;-76
2021/08/05 07:53:29;;;;;;;7.17;6.45;;;;;;;18.19;90.08;97285.09;1706995;84;20921;-79
2021/08/05 07:55:55;;;;;;;7.40;6.55;;;;;;;18.17;91.02;97283.28;1707108;83;20902;-75
2021/08/05 07:58:21;;;;;;;7.33;6.62;;;;;;;18.18;90.55;97286.81;1706174;82;21037;-79
2021/08/05 08:00:47;;;;;;;8.25;6.15;;;;;;;18.27;90.21;97286.09;1704914;83;21356;-75
2021/08/05 08:03:13;;;;;;;8.50;6.25;;;;;;;18.35;90.07;97291.22;1700542;82;21431;-79
2021/08/05 08:05:42;;;;;;;10.98;7.35;;;;;;;18.41;89.69;97285.73;1698987;84;21104;-79
2021/08/05 08:08:08;;;;;;;;;;;;;;;18.50;89.98;97282.26;1701646;83;21420;-78
2021/08/05 08:10:35;;;;;;;8.80;6.10;;;;;;;18.56;90.57;97278.92;1699258;83;20206;-75
2021/08/05 08:13:01;;;;;;;7.95;4.80;;;;;;;18.59;89.88;97271.36;1698952;83;21352;-79
2021/08/05 08:15:31;;;;;;;7.40;5.20;;;;;;;18.68;89.53;97269.06;1697912;84;21419;-79
2021/08/05 08:17:57;;;;;;;6.20;5.60;;;;;;;18.69;89.53;97266.54;1699293;83;21179;-74
2021/08/05 08:20:22;;;;;;;5.83;4.83;;;;;;;18.69;89.00;97267.91;1699268;84;20843;-78
2021/08/05 08:22:49;;;;;;;7.50;4.65;;;;;;;18.70;89.37;97266.77;1699722;83;21652;-79
2021/08/05 08:25:15;;;;;;;4.25;3.72;;;;;;;18.75;89.17;97263.20;1699353;84;21026;-75
2021/08/05 08:27:42;;;;;;;6.75;4.28;;;;;;;18.76;88.89;97257.93;1699230;82;20974;-74
2021/08/05 08:30:10;;;;;;;4.90;4.30;;;;;;;18.66;89.07;97261.19;1699071;84;21571;-75
2021/08/05 08:32:36;;;;;;;4.03;3.57;;;;;;;18.46;89.44;97256.69;1699375;83;20955;-74
2021/08/05 08:35:04;;;;;;;3.65;2.83;;;;;;;18.53;89.21;97250.80;1699364;84;21008;-74
2021/08/05 08:37:29;;;;;;;4.37;3.33;;;;;;;18.53;89.23;97250.80;1699516;83;20991;-79
2021/08/05 08:39:55;;;;;;;3.90;3.02;;;;;;;18.46;90.03;97243.77;1679146;84;20997;-78
2021/08/05 08:42:21;;;;;;;4.08;3.25;;;;;;;18.51;89.50;97250.36;1699190;83;21314;-79
2021/08/05 08:44:47;;;;;;;4.37;3.45;;;;;;;18.56;89.58;97242.47;1698935;83;20874;-74
2021/08/05 08:47:13;;;;;;;5.35;4.08;;;;;;;18.53;89.83;97245.89;1699265;84;21579;-75
2021/08/05 08:49:43;;;;;;;3.52;3.02;;;;;;;18.58;89.49;97244.28;1698951;84;20866;-75
2021/08/05 08:52:10;;;;;;;3.87;3.25;;;;;;;18.49;89.08;97245.01;1704730;83;21029;-75
2021/08/05 08:54:43;;;;;;;4.78;3.27;;;;;;;18.30;89.73;97234.12;1704715;83;21295;-75
2021/08/05 08:57:08;;;;;;;5.28;2.70;;;;;;;18.34;89.67;97228.72;1704661;84;20923;-75
2021/08/05 08:59:34;;;;;;;3.72;3.10;;;;;;;18.32;90.05;97226.91;1707485;83;20973;-78
2021/08/05 09:01:59;;;;;;;4.53;3.40;;;;;;;18.37;89.89;97225.84;1707588;83;20973;-78
2021/08/05 09:04:26;;;;;;;4.25;3.15;;;;;;;18.40;90.13;97227.91;1707000;83;20985;-79
2021/08/05 09:06:52;;;;;;;6.05;3.15;;;;;;;18.45;89.56;97223.52;1707152;83;21512;-74
2021/08/05 09:09:18;;;;;;;4.10;3.25;;;;;;;18.52;89.31;97220.41;1706764;83;21323;-74
2021/08/05 09:11:44;;;;;;;3.25;2.80;;;;;;;18.59;89.30;97221.97;1706953;84;21508;-74
2021/08/05 09:14:10;;;;;;;3.27;2.67;;;;;;;18.68;89.02;97224.59;1706785;83;20858;-79
2021/08/05 09:16:36;;;;;;;2.55;2.02;;;;;;;18.59;89.61;97224.72;1707204;82;21445;-74
2021/08/05 09:19:19;;;;;;;4.90;3.02;;;;;;;18.54;89.06;97228.28;1706794;84;21141;-79
2021/08/05 09:21:57;;;;;;;7.08;5.80;;;;;;;18.63;88.82;97230.32;1706789;83;21391;-79
2021/08/05 09:24:29;;;;;;;4.28;3.12;;;;;;;18.57;89.41;97230.34;1707169;84;21010;-75
2021/08/05 09:26:58;;;;;;;3.05;2.75;;;;;;;18.55;89.14;97224.41;1707147;82;21025;-79
2021/08/05 09:29:23;;;;;;;3.50;2.50;;;;;;;18.55;89.52;97224.41;1707385;83;20942;-74
2021/08/05 09:31:58;;;;;;;3.20;2.65;;;;;;;18.57;89.77;97222.11;1707164;83;21022;-75
2021/08/05 09:34:40;;;;;;;5.83;2.60;;;;;;;18.56;89.30;97217.78;1706919;84;20950;-79
2021/08/05 09:37:08;;;;;;;3.47;2.65;;;;;;;18.56;89.56;97214.45;1707022;83;21033;-74
2021/08/05 09:39:39;;;;;;;2.52;2.27;;;;;;;18.50;89.18;97207.62;1707130;84;20922;-78
2021/08/05 09:42:10;;;;;;;2.75;2.37;;;;;;;18.32;89.18;97204.40;1706956;83;21018;-78
2021/08/05 09:44:46;;;;;;;3.70;2.65;;;;;;;18.30;89.54;97208.06;1706775;83;21845;-74
2021/08/05 09:47:18;;;;;;;2.40;2.12;;;;;;;18.30;89.70;97207.27;1706941;84;20966;-74
2021/08/05 09:49:52;;;;;;;3.40;2.40;;;;;;;18.25;90.05;97214.36;1706810;82;21334;-75
2021/08/05 09:52:33;;;;;;;3.00;2.50;;;;;;;18.20;90.14;97207.20;1706956;83;21038;-75
2021/08/05 09:55:01;;;;;;;5.28;2.70;;;;;;;18.17;90.26;97200.23;1709060;82;21006;-78
2021/08/05 09:57:33;;;;;;;3.35;2.05;;;;;;;18.21;90.59;97198.41;1707143;84;21283;-78
2021/08/05 10:00:04;;;;;;;2.50;2.30;;;;;;;18.27;89.88;97190.13;1708821;82;21014;-79
2021/08/05 10:02:47;;;;;;;2.42;2.08;;;;;;;18.29;89.98;97195.51;1706982;83;20977;-75
2021/08/05 10:05:16;;;;;;;2.65;2.20;;;;;;;18.26;90.41;97192.07;1706640;83;20958;-75
2021/08/05 10:07:49;;;;;;;2.77;2.20;;;;;;;18.31;90.05;97190.47;1707007;84;20962;-79
2021/08/05 10:10:18;;;;;;;4.40;1.98;;;;;;;18.33;89.82;97186.79;1706872;84;21160;-79
2021/08/05 10:12:58;;;;;;;3.02;2.30;;;;;;;18.45;89.69;97170.04;1706894;84;20954;-78
2021/08/05 10:15:24;;;;;;;2.77;2.20;;;;;;;18.52;89.46;97160.05;1713280;83;21327;-80
2021/08/05 10:17:52;;;;;;;5.42;2.47;;;;;;;18.69;88.76;97170.51;1710950;83;21001;-78
2021/08/05 10:20:19;;;;;;;3.98;2.50;;;;;;;18.76;88.72;97167.95;1707041;82;21466;-80
2021/08/05 10:22:45;;;;;;;3.90;2.30;;;;;;;18.85;87.40;97170.73;1706863;83;21110;-74
2021/08/05 10:25:15;;;;;;;3.20;1.77;;;;;;;18.86;87.94;97163.30;1686777;84;20925;-74
2021/08/05 10:27:41;;;;;;;3.05;2.20;;;;;;;18.87;87.59;97167.63;1706977;83;20958;-75
2021/08/05 10:30:10;;;;;;;4.78;2.70;;;;;;;18.86;87.62;97164.67;1706860;83;20966;-78
2021/08/05 10:32:36;;;;;;;3.45;2.67;;;;;;;18.80;87.62;97160.05;1706798;84;20965;-75
2021/08/05 10:35:03;;;;;;;8.18;2.58;;;;;;;18.77;87.53;97146.22;1706849;83;21268;-76
2021/08/05 10:37:29;;;;;;;2.45;2.25;;;;;;;18.78;88.27;97149.17;1706960;83;21061;-78
2021/08/05 10:39:55;;;;;;;3.72;2.62;;;;;;;18.71;88.02;97142.13;1706916;84;20946;-74
2021/08/05 10:42:21;;;;;;;4.35;2.37;;;;;;;18.77;88.87;97148.38;1686668;84;20946;-78
2021/08/05 10:44:49;;;;;;;3.05;2.15;;;;;;;18.82;87.75;97145.96;1707029;84;20847;-78
2021/08/05 10:47:21;;;;;;;3.42;2.70;;;;;;;18.91;88.24;97140.30;1707135;83;21126;-79
2021/08/05 10:49:49;;;;;;;4.85;3.27;;;;;;;19.00;87.49;97147.77;1706763;83;20926;-75
2021/08/05 10:52:38;;;;;;;4.03;3.15;;;;;;;19.09;87.31;97140.14;1706900;82;21517;-75
2021/08/05 10:55:20;;;;;;;;;;;;;;;19.07;87.01;97136.97;1709321;84;20981;-79
2021/08/05 10:57:49;;;;;;;3.27;2.98;;;;;;;19.00;87.15;97127.18;1706911;84;20138;-75
2021/08/05 11:00:16;;;;;;;3.95;3.22;;;;;;;18.83;87.12;97125.02;1690934;83;21369;-75
2021/08/05 11:02:44;;;;;;;5.10;3.42;;;;;;;18.85;86.89;97126.03;1719937;83;21005;-79
2021/08/05 11:05:12;;;;;;;4.08;3.67;;;;;;;18.61;88.19;97116.79;1710686;83;21006;-75
2021/08/05 11:07:38;;;;;;;6.28;3.90;;;;;;;18.74;87.39;97114.80;1707726;82;21437;-79
2021/08/05 11:10:19;;;;;;;5.30;4.05;;;;;;;18.77;87.56;97115.45;1706978;83;20863;-79
2021/08/05 11:12:51;;;;;;;5.10;3.98;;;;;;;18.89;87.57;97110.47;1711464;82;21962;-75
2021/08/05 11:15:26;;;;;;;5.55;4.50;;;;;;;18.75;87.78;97112.85;1706779;83;21333;-75
2021/08/05 11:18:17;;;;;;;6.87;5.67;;;;;;;18.81;87.79;97100.47;1706958;83;21005;-79
2021/08/05 11:21:01;;;;;;;9.70;5.80;;;;;;;18.65;87.51;97103.20;1706804;83;20954;-78
2021/08/05 11:23:35;;;;;;;7.58;5.85;;;;;;;18.56;88.35;97097.08;1706382;83;20922;-79
2021/08/05 11:26:06;;;;;;;7.90;5.92;;;;;;;18.48;88.08;97089.81;1707732;83;21387;-75
2021/08/05 11:28:52;;;;;;;8.88;7.40;;;;;;;18.52;88.53;97089.31;1706885;83;21391;-78
2021/08/05 11:31:28;;;;;;;8.73;6.78;;;;;;;18.41;88.36;97086.89;1707362;83;21014;-78
2021/08/05 11:34:04;;;;;;;7.65;6.22;;;;;;;18.26;89.54;97089.83;1706772;83;21284;-74
2021/08/05 11:36:43;;;;;;;9.28;7.03;;;;;;;18.13;89.59;97085.00;1707095;84;21013;-75